Flight Track Log - Related Links

Times and Time Zones

All times are in EDT time to prevent confusion due to time zone crossing. See the USC105 flight status page for this flight to view local times or setup timezone preferences in your user account.

Time Position Orientation Groundspeed Altitude Reporting Facility
EDT Latitude Longitude Course Direction KTS MPH feet Rate Location/Type
Wed 12:16:55 AM 42.2369 -83.6067 259° West 131 151 2,200  Level Cleveland Center
Wed 12:17:55 AM 42.2397 -83.6600 274° West 135 155 3,000 709 Climbing Cleveland Center
Wed 12:19:02 AM 42.2383 -83.7106 268° West 129 148 3,700 609 Climbing Cleveland Center
Wed 12:20:03 AM 42.2350 -83.7581 265° West 125 144 4,300 636 Climbing Cleveland Center
Wed 12:22:20 AM 42.2281 -83.8847 266° West 146 168 5,800 515 Climbing Chicago Center
Wed 12:23:21 AM 42.2289 -83.9364 271° West 140 161 6,000 49 Climbing Chicago Center
Wed 12:24:22 AM 42.2269 -83.9956 267° West 147 169 5,900 50 Descending Chicago Center
Wed 12:25:22 AM 42.2217 -84.0536 263° West 153 176 6,100 99 Climbing Chicago Center
Wed 12:26:23 AM 42.2164 -84.1147 263° West 158 182 6,100  Level Chicago Center
Wed 12:27:23 AM 42.2100 -84.1769 262° West 163 188 6,100 -50 Level Chicago Center
Wed 12:28:24 AM 42.2083 -84.2383 268° West 164 189 6,000 -50 Descending Chicago Center
Wed 12:29:24 AM 42.2050 -84.2994 266° West 164 189 6,000  Level Chicago Center
Wed 12:30:25 AM 42.1997 -84.3633 264° West 169 194 6,000  Level Chicago Center
Wed 12:31:25 AM 42.1958 -84.4253 265° West 169 194 6,000  Level Chicago Center
Wed 12:32:26 AM 42.1922 -84.4869 266° West 166 191 6,000  Level Chicago Center
Wed 12:33:26 AM 42.1886 -84.5472 265° West 168 193 6,000  Level Chicago Center
Wed 12:34:27 AM 42.1844 -84.6100 265° West 169 194 6,000  Level Chicago Center
Wed 12:35:27 AM 42.1806 -84.6717 265° West 167 192 6,000  Level Chicago Center
Wed 12:36:28 AM 42.1761 -84.7333 264° West 167 192 6,000  Level Chicago Center
Wed 12:37:28 AM 42.1731 -84.7964 266° West 169 194 6,000  Level Chicago Center
Wed 12:38:29 AM 42.1686 -84.8594 265° West 170 196 6,000  Level Chicago Center
Wed 12:39:29 AM 42.1653 -84.9211 266° West 167 192 6,000  Level Chicago Center
Wed 12:40:29 AM 42.1606 -84.9956 265° West 166 191 6,000 50 Level Chicago Center
Wed 12:41:30 AM 42.1569 -85.0600 266° West 172 198 6,100 50 Climbing Chicago Center
Wed 12:42:30 AM 42.1539 -85.1228 266° West 170 196 6,100  Level Chicago Center
Wed 12:43:31 AM 42.1503 -85.1844 266° West 168 193 6,100  Level Chicago Center
Wed 12:44:31 AM 42.1458 -85.2456 264° West 166 191 6,100  Level Chicago Center
Wed 12:45:32 AM 42.1411 -85.3072 264° West 167 192 6,100  Level Chicago Center
Wed 12:46:32 AM 42.1369 -85.3686 265° West 167 192 6,100  Level Chicago Center
Wed 12:47:32 AM 42.1322 -85.4286 264° West 164 189 6,100  Level Chicago Center
Wed 12:48:33 AM 42.1281 -85.4878 265° West 161 185 6,100  Level Chicago Center
Wed 12:49:33 AM 42.1233 -85.5486 264° West 162 186 6,100  Level Chicago Center
Wed 12:50:34 AM 42.1197 -85.6111 266° West 166 191 6,100  Level Chicago Center
Wed 12:51:34 AM 42.1150 -85.6728 264° West 167 192 6,100  Level Chicago Center
Wed 12:52:34 AM 42.1106 -85.7344 264° West 167 192 6,100  Level Chicago Center
Wed 12:53:35 AM 42.1058 -85.7972 264° West 168 193 6,100  Level Chicago Center
Wed 12:54:35 AM 42.1017 -85.8625 265° West 173 199 6,100  Level Chicago Center
Wed 12:55:35 AM 42.0967 -85.9261 264° West 173 199 6,100  Level Chicago Center
Wed 12:56:36 AM 42.0925 -85.9886 265° West 171 197 6,100  Level Chicago Center
Wed 12:57:36 AM 42.0883 -86.0517 265° West 169 194 6,100  Level Chicago Center
Wed 12:58:36 AM 42.0831 -86.1150 264° West 170 196 6,100  Level Chicago Center
Wed 12:59:37 AM 42.0792 -86.1775 265° West 169 194 6,100  Level Chicago Center
Wed 01:00:37 AM 42.0739 -86.2411 264° West 171 197 6,100  Level Chicago Center
Wed 01:01:37 AM 42.0692 -86.3044 264° West 171 197 6,100  Level Chicago Center
Wed 01:02:38 AM 42.0644 -86.3678 264° West 171 197 6,100  Level Chicago Center
Wed 01:03:38 AM 42.0592 -86.4300 264° West 169 194 6,100  Level Chicago Center
Wed 01:04:38 AM 42.0544 -86.5050 265° West 168 193 6,100  Level Chicago Center
Wed 01:05:39 AM 42.0494 -86.5650 264° West 165 190 6,100  Level Chicago Center
Wed 01:06:39 AM 42.0447 -86.6261 264° West 164 189 6,100  Level Chicago Center
Wed 01:07:39 AM 42.0403 -86.6864 264° West 163 188 6,100  Level Chicago Center
Wed 01:08:39 AM 42.0367 -86.7386 265° West 161 185 6,100  Level Chicago Center
Wed 01:09:40 AM 42.0317 -86.7986 264° West 162 186 6,100 -50 Level Chicago Center
Wed 01:10:40 AM 42.0267 -86.8575 263° West 160 184 6,000 -50 Descending Chicago Center
Wed 01:11:40 AM 42.0225 -86.9219 265° West 172 198 6,000  Level Chicago Center
Wed 01:12:40 AM 42.0161 -86.9836 262° West 168 193 6,000  Level Chicago Center
Wed 01:13:41 AM 42.0106 -87.0481 263° West 173 199 6,000  Level Chicago Center
Wed 01:14:41 AM 42.0061 -87.1117 265° West 172 198 6,000  Level Chicago Center
Wed 01:15:41 AM 41.9994 -87.1878 263° West 172 198 6,000 -50 Level Chicago Center
Wed 01:16:41 AM 41.9947 -87.2514 264° West 171 197 5,900  Descending Chicago Center
Wed 01:17:42 AM 41.9894 -87.3133 263° West 168 193 6,000 50 Climbing Chicago Center
Wed 01:18:42 AM 41.9833 -87.3767 263° West 171 197 6,000  Level Chicago Center
Wed 01:19:17 AM 41.9833 -87.4167 270° West 171 197 6,000  Level Chicago TRACON
Wed 01:20:23 AM 41.9667 -87.4833 251° West 171 197 6,000  Level Chicago TRACON
Wed 01:21:17 AM 41.9667 -87.5333 270° West 173 199 6,000  Level Chicago TRACON
Wed 01:22:17 AM 41.9667 -87.6000 270° West 176 203 6,000  Level Chicago TRACON
Wed 01:23:17 AM 41.9500 -87.6667 251° West 174 200 6,000 -50 Level Chicago TRACON
Wed 01:24:17 AM 41.9500 -87.7333 270° West 180 207 5,900  Descending Chicago TRACON
Wed 01:25:17 AM 41.9333 -87.8000 251° West 181 208 6,000 50 Climbing Chicago TRACON
Wed 01:26:17 AM 41.9000 -87.8500 228° Southwest 182 209 6,000 -248 Level Chicago TRACON
Wed 01:27:18 AM 41.8833 -87.9167 251° West 197 227 5,500 -545 Descending Chicago TRACON
Wed 01:28:18 AM 41.8500 -87.9833 236° Southwest 199 229 4,900 -558 Descending Chicago TRACON
Wed 01:28:44 AM 41.8467 -88.0019 256° West 191 220 4,700 -419 Descending Chicago Center
Wed 01:29:44 AM 41.8183 -88.0644 239° Southwest 196 226 4,300 -496 Descending Chicago Center
Wed 01:30:45 AM 41.7917 -88.1281 241° Southwest 196 226 3,700 -545 Descending Chicago Center
Wed 01:31:45 AM 41.7664 -88.1919 242° Southwest 197 227 3,200 -500 Descending Chicago Center
Wed 01:32:45 AM 41.7469 -88.2544 247° West 194 223 2,700 -350 Descending Chicago Center
Wed 01:33:45 AM 41.7778 -88.2794 329° Northwest 162 186 2,500 -100 Descending Chicago Center
Wed 01:34:45 AM 41.8136 -88.2825 356° North 141 162 2,500 -347 Level Chicago Center
Wed 01:35:46 AM 41.8442 -88.2703 17° North 125 144 1,800 -645 Descending Chicago Center
Wed 01:36:46 AM 41.8733 -88.2603 14° North 116 133 1,200 -450 Descending Chicago Center
Wed 01:37:46 AM 41.9086 -88.2483 14° North 114 131 900 -300 Descending Chicago Center

Login

Don't have an account? Register now (free) for customized features, flight alerts, and more!